createdAt,value
2022-08-18T00:03:55.597Z,29.24
2022-08-18T00:09:04.934Z,28.99
2022-08-18T00:14:08.242Z,28.73
2022-08-18T00:19:09.883Z,28.54
2022-08-18T00:24:11.639Z,28.34
2022-08-18T00:29:13.206Z,28.14
2022-08-18T00:34:14.866Z,27.98
2022-08-18T00:39:16.866Z,27.80
2022-08-18T00:44:18.418Z,27.45
2022-08-18T00:49:19.986Z,27.34
2022-08-18T00:54:29.186Z,27.19
2022-08-18T00:59:33.555Z,27.08
2022-08-18T01:04:44.397Z,26.94
2022-08-18T01:09:51.932Z,26.82
2022-08-18T01:14:54.922Z,26.63
2022-08-18T01:20:16.915Z,26.49
2022-08-18T01:25:40.147Z,26.39
2022-08-18T01:30:50.930Z,26.32
2022-08-18T01:35:54.274Z,26.27
2022-08-18T01:41:23.170Z,26.05
2022-08-18T01:46:20.265Z,25.94
2022-08-18T01:51:40.126Z,25.93
2022-08-18T01:56:43.436Z,25.92
2022-08-18T02:01:48.915Z,25.86
2022-08-18T02:06:56.242Z,25.85
2022-08-18T02:12:00.141Z,25.85
2022-08-18T02:17:04.667Z,25.80
2022-08-18T02:22:08.067Z,25.73
2022-08-18T02:27:11.893Z,25.62
2022-08-18T02:32:13.973Z,25.59
2022-08-18T02:37:15.897Z,25.51
2022-08-18T02:42:18.153Z,25.42
2022-08-18T02:47:20.873Z,25.39
2022-08-18T02:52:23.087Z,25.42
2022-08-18T02:57:24.723Z,25.44
2022-08-18T03:02:26.470Z,25.43
2022-08-18T03:07:28.106Z,25.38
2022-08-18T03:12:29.659Z,25.36
2022-08-18T03:17:31.919Z,25.35
2022-08-18T03:22:34.246Z,25.22
2022-08-18T03:27:36.063Z,25.11
2022-08-18T03:32:37.705Z,25.05
2022-08-18T03:37:39.294Z,24.92
2022-08-18T03:42:40.916Z,24.87
2022-08-18T03:47:42.487Z,24.85
2022-08-18T03:52:48.654Z,24.86
2022-08-18T03:57:52.994Z,24.90
2022-08-18T04:02:55.047Z,25.00
2022-08-18T04:07:57.656Z,25.11
2022-08-18T04:12:59.330Z,25.19
2022-08-18T04:18:04.704Z,25.26
2022-08-18T04:23:06.607Z,25.30
2022-08-18T04:28:08.231Z,25.34
2022-08-18T04:33:09.839Z,25.39
2022-08-18T04:38:11.575Z,25.45
2022-08-18T04:43:15.543Z,25.48
2022-08-18T04:48:17.681Z,25.53
2022-08-18T04:53:38.190Z,25.54
2022-08-18T04:58:39.905Z,25.56
2022-08-18T05:03:49.940Z,25.56
2022-08-18T05:08:54.584Z,25.59
2022-08-18T05:14:00.229Z,25.62
2022-08-18T05:19:14.934Z,25.63
2022-08-18T05:24:17.467Z,25.64
2022-08-18T05:29:23.539Z,25.64
2022-08-18T05:34:25.716Z,25.60
2022-08-18T05:39:40.355Z,25.58
2022-08-18T05:44:46.008Z,25.60
2022-08-18T05:49:49.373Z,25.61
2022-08-18T05:55:19.742Z,25.60
2022-08-18T06:00:23.959Z,25.59
2022-08-18T06:05:32.664Z,25.60
2022-08-18T06:10:35.882Z,25.61
2022-08-18T06:15:39.600Z,25.61
2022-08-18T06:20:50.479Z,25.63
2022-08-18T06:26:11.057Z,25.68
2022-08-18T06:31:30.425Z,25.73
2022-08-18T06:36:45.070Z,25.78
2022-08-18T06:41:49.480Z,25.84
2022-08-18T06:46:56.391Z,25.97
2022-08-18T06:51:58.091Z,26.08
2022-08-18T06:56:59.934Z,26.18
2022-08-18T07:02:18.521Z,26.25
2022-08-18T07:07:43.435Z,26.30
2022-08-18T07:12:45.194Z,26.42
2022-08-18T07:17:49.452Z,26.50
2022-08-18T07:23:01.512Z,26.54
2022-08-18T07:28:04.843Z,26.61
2022-08-18T07:33:19.246Z,26.63
2022-08-18T07:38:43.867Z,26.68
2022-08-18T07:43:52.262Z,26.65
2022-08-18T07:48:54.077Z,26.68
2022-08-18T07:54:31.230Z,26.75
2022-08-18T07:59:45.195Z,26.88
2022-08-18T08:04:49.867Z,26.92
2022-08-18T08:10:22.570Z,26.94
2022-08-18T08:15:49.642Z,26.99
2022-08-18T08:20:59.498Z,27.13
2022-08-18T08:26:24.549Z,27.24
2022-08-18T08:31:47.727Z,27.39
2022-08-18T08:36:59.161Z,27.59
2022-08-18T08:42:31.874Z,27.67
2022-08-18T08:47:36.905Z,27.79
2022-08-18T08:52:43.735Z,27.98
2022-08-18T08:57:56.033Z,28.04
2022-08-18T09:03:00.728Z,28.10
2022-08-18T09:08:34.110Z,28.15
2022-08-18T09:13:50.955Z,28.21
2022-08-18T09:19:19.291Z,28.25
2022-08-18T09:24:29.108Z,28.40
2022-08-18T09:29:54.274Z,28.58
2022-08-18T09:35:25.407Z,28.62
2022-08-18T09:46:12.374Z,28.89
2022-08-18T09:51:31.499Z,28.91
2022-08-18T10:02:33.034Z,29.09
2022-08-18T10:07:43.239Z,29.29
2022-08-18T10:13:03.739Z,29.41
2022-08-18T10:18:26.859Z,29.57
2022-08-18T10:29:52.921Z,29.87
2022-08-18T10:34:55.560Z,30.00
2022-08-18T10:40:03.230Z,30.11
2022-08-18T10:45:25.903Z,30.17
2022-08-18T10:50:50.081Z,30.24
2022-08-18T10:56:09.362Z,30.40
2022-08-18T11:01:36.955Z,30.59
2022-08-18T11:06:49.051Z,30.83
2022-08-18T11:12:00.026Z,31.00
2022-08-18T11:17:09.118Z,31.17
2022-08-18T11:22:36.509Z,31.29
2022-08-18T11:27:46.651Z,31.34
2022-08-18T11:32:52.198Z,31.39
2022-08-18T11:37:59.868Z,31.39
2022-08-18T11:43:29.736Z,31.38
2022-08-18T11:48:51.585Z,31.40
2022-08-18T11:54:00.618Z,31.44
2022-08-18T11:59:04.568Z,31.47
2022-08-18T12:04:44.847Z,31.58
2022-08-18T12:10:17.693Z,31.74
2022-08-18T12:15:24.643Z,31.85
2022-08-18T12:20:27.560Z,31.98
2022-08-18T12:25:29.297Z,32.13
2022-08-18T12:30:31.093Z,32.28
2022-08-18T12:35:34.880Z,32.46
2022-08-18T12:40:36.970Z,32.64
2022-08-18T12:45:39.276Z,32.76
2022-08-18T12:50:54.641Z,32.91
2022-08-18T12:56:01.163Z,32.97
2022-08-18T13:01:03.780Z,33.05
2022-08-18T13:06:06.039Z,33.19
2022-08-18T13:11:15.225Z,33.34
2022-08-18T13:16:38.924Z,33.43
2022-08-18T13:21:49.617Z,33.53
2022-08-18T13:26:51.669Z,33.55
2022-08-18T13:31:58.234Z,33.59
2022-08-18T13:36:59.883Z,33.61
2022-08-18T13:42:21.562Z,33.62
2022-08-18T13:47:27.649Z,33.66
2022-08-18T13:52:41.217Z,33.51
2022-08-18T13:57:50.293Z,33.33
2022-08-18T14:02:57.279Z,33.26
2022-08-18T14:07:59.055Z,33.24
2022-08-18T14:13:20.158Z,33.24
2022-08-18T14:18:29.057Z,33.23
2022-08-18T14:23:52.950Z,33.23
2022-08-18T14:28:55.554Z,33.20
2022-08-18T14:33:59.718Z,33.19
2022-08-18T14:39:06.106Z,33.18
2022-08-18T14:44:15.328Z,33.18
2022-08-18T14:49:22.148Z,33.15
2022-08-18T14:54:32.029Z,33.14
2022-08-18T14:59:34.688Z,33.12
2022-08-18T15:04:55.927Z,33.11
2022-08-18T15:10:15.339Z,33.09
2022-08-18T15:15:22.505Z,33.10
2022-08-18T15:20:29.770Z,33.10
2022-08-18T15:25:47.137Z,33.12
2022-08-18T15:36:16.676Z,33.15
2022-08-18T15:41:43.902Z,33.17
2022-08-18T15:46:51.302Z,33.17
2022-08-18T15:51:55.173Z,33.19
2022-08-18T15:56:58.851Z,33.16
2022-08-18T16:02:01.037Z,33.14
2022-08-18T16:07:02.729Z,33.09
2022-08-18T16:12:04.677Z,33.02
2022-08-18T16:17:09.440Z,32.92
2022-08-18T16:22:19.803Z,32.84
2022-08-18T16:27:24.228Z,32.76
2022-08-18T16:32:26.369Z,32.71
2022-08-18T16:37:28.150Z,32.65
2022-08-18T16:42:32.815Z,32.63
2022-08-18T16:47:39.065Z,32.59
2022-08-18T16:52:41.894Z,32.54
2022-08-18T16:58:03.220Z,32.44
2022-08-18T17:03:24.942Z,32.33
2022-08-18T17:08:26.605Z,32.26
2022-08-18T17:13:28.703Z,32.22
2022-08-18T17:18:30.562Z,32.15
2022-08-18T17:23:34.109Z,32.11
2022-08-18T17:28:50.195Z,32.05
2022-08-18T17:33:57.470Z,32.01
2022-08-18T17:39:02.855Z,31.94
2022-08-18T17:44:06.840Z,31.89
2022-08-18T17:49:54.401Z,31.82
2022-08-18T17:55:20.107Z,31.77
2022-08-18T18:00:22.283Z,31.74
2022-08-18T18:05:32.207Z,31.67
2022-08-18T18:16:29.275Z,31.29
2022-08-18T18:22:00.077Z,30.99
2022-08-18T18:26:55.892Z,30.74
2022-08-18T18:32:02.497Z,30.54
2022-08-18T18:37:04.285Z,30.32
2022-08-18T18:42:15.821Z,30.09
2022-08-18T18:47:40.434Z,29.96
2022-08-18T18:53:08.412Z,29.89
2022-08-18T18:58:55.507Z,29.86
2022-08-18T19:04:10.268Z,29.83
2022-08-18T19:09:37.590Z,29.81
2022-08-18T19:15:05.012Z,29.82
2022-08-18T19:20:15.932Z,29.74
2022-08-18T19:25:36.312Z,29.60
2022-08-18T19:30:42.782Z,29.44
2022-08-18T19:36:04.598Z,29.16
2022-08-18T19:41:20.267Z,28.95
2022-08-18T19:46:38.289Z,28.71
2022-08-18T19:51:42.749Z,28.53
2022-08-18T19:56:56.552Z,28.40
2022-08-18T20:02:35.113Z,28.17
2022-08-18T20:07:40.135Z,27.83
2022-08-18T20:13:23.358Z,27.51
2022-08-18T20:18:35.860Z,27.17
2022-08-18T20:23:59.642Z,26.84
2022-08-18T20:29:02.348Z,26.60
2022-08-18T20:34:14.010Z,26.36
2022-08-18T20:39:35.342Z,26.19
2022-08-18T20:44:50.038Z,26.11
2022-08-18T20:50:07.301Z,26.12
2022-08-18T20:55:46.311Z,26.16
2022-08-18T21:00:55.658Z,26.29
2022-08-18T21:06:03.224Z,26.41
2022-08-18T21:11:20.579Z,26.51
2022-08-18T21:16:45.169Z,26.62
2022-08-18T21:21:53.937Z,26.67
2022-08-18T21:26:58.945Z,26.70
2022-08-18T21:32:17.056Z,26.73
2022-08-18T21:37:19.801Z,26.75
2022-08-18T21:42:32.646Z,26.66
2022-08-18T21:47:34.773Z,26.57
2022-08-18T21:52:40.390Z,26.52
2022-08-18T21:58:17.593Z,26.50
2022-08-18T22:03:23.295Z,26.50
2022-08-18T22:08:27.633Z,26.51
2022-08-18T22:13:48.135Z,26.49
2022-08-18T22:18:50.486Z,26.45
2022-08-18T22:24:11.379Z,26.37
2022-08-18T22:29:26.923Z,26.21
2022-08-18T22:34:32.969Z,26.11
2022-08-18T22:39:39.370Z,26.07
2022-08-18T22:44:42.231Z,26.02
2022-08-18T22:49:45.312Z,25.90
2022-08-18T22:54:47.155Z,25.85
2022-08-18T22:59:52.692Z,25.76
2022-08-18T23:04:54.461Z,25.61
2022-08-18T23:09:56.385Z,25.52
2022-08-18T23:14:58.965Z,25.48
2022-08-18T23:20:00.733Z,25.49
2022-08-18T23:25:09.185Z,25.56
2022-08-18T23:30:12.738Z,25.58
2022-08-18T23:35:15.603Z,25.57
2022-08-18T23:40:19.475Z,25.51
2022-08-18T23:45:21.275Z,25.46
2022-08-18T23:50:23.878Z,25.41
2022-08-18T23:55:28.921Z,25.32
